Terminal Aerodrome Forecast
Issued by NWS Sterling, VA

Current Version | Previous Version | Graphics & Text | Print | Product List | Glossary On
Versions: 1 2 3 4 5 6 7 8 9 10 11 12 13 14 15 16 17
000
FTUS41 KLWX 240832 AAC
TAFMRB
TAF AMD
KMRB 240832Z 2409/2506 28007KT P6SM SCT025 OVC030 WS020/33030KT
     FM241000 29008KT P6SM SCT025 OVC040
     FM241300 29010G17KT P6SM FEW035 SCT150
     FM250100 29006KT P6SM FEW070 SCT250=

USA.gov is the U.S. government's official web portal to all federal, state and local government web resources and services.